createdAt,value
2023-05-09T00:00:43.940Z,2.6
2023-05-09T00:06:29.174Z,2.3
2023-05-09T00:12:13.931Z,2.6
2023-05-09T00:17:58.764Z,2.5
2023-05-09T00:23:43.702Z,2.5
2023-05-09T00:29:28.302Z,2.3
2023-05-09T00:35:14.860Z,2.5
2023-05-09T00:41:00.027Z,2.3
2023-05-09T00:46:45.386Z,2.6
2023-05-09T00:52:30.609Z,2.3
2023-05-09T00:58:15.609Z,2.4
2023-05-09T01:04:00.369Z,2.2
2023-05-09T01:09:51.549Z,2.5
2023-05-09T01:15:39.051Z,2.3
2023-05-09T01:21:28.580Z,2.3
2023-05-09T01:27:27.850Z,2.3
2023-05-09T01:33:14.840Z,2.5
2023-05-09T01:39:00.926Z,2.4
2023-05-09T01:44:47.716Z,2.1
2023-05-09T01:50:32.602Z,2.5
2023-05-09T01:56:17.641Z,2.3
2023-05-09T02:02:02.813Z,2.4
2023-05-09T02:07:49.401Z,2.5
2023-05-09T02:13:34.136Z,2.4
2023-05-09T02:19:18.950Z,2.4
2023-05-09T02:25:04.284Z,2.1
2023-05-09T02:30:49.625Z,2.5
2023-05-09T02:36:35.958Z,2.5
2023-05-09T02:42:21.421Z,2.1
2023-05-09T02:48:10.544Z,2.2
2023-05-09T02:53:55.255Z,2.2
2023-05-09T02:59:39.896Z,2.3
2023-05-09T03:05:24.755Z,2.5
2023-05-09T03:11:09.419Z,2.5
2023-05-09T03:16:54.303Z,2.2
2023-05-09T03:22:38.901Z,2.2
2023-05-09T03:28:23.822Z,2.2
2023-05-09T03:34:08.222Z,2.4
2023-05-09T03:39:52.937Z,2.3
2023-05-09T03:45:37.693Z,2.4
2023-05-09T03:51:22.525Z,2.5
2023-05-09T03:57:07.769Z,2.4
2023-05-09T04:02:53.346Z,2.5
2023-05-09T04:08:38.235Z,2.4
2023-05-09T04:14:22.866Z,2.5
2023-05-09T04:20:08.280Z,2.5
2023-05-09T04:25:52.819Z,2.5
2023-05-09T04:31:37.878Z,2.8
2023-05-09T04:37:22.820Z,2.5
2023-05-09T04:43:07.431Z,2.4
2023-05-09T04:48:52.073Z,2.5
2023-05-09T04:54:36.900Z,2.3
2023-05-09T05:00:21.976Z,2.7
2023-05-09T05:06:06.852Z,2.8
2023-05-09T05:12:03.201Z,2.7
2023-05-09T05:17:51.559Z,2.6
2023-05-09T05:23:36.275Z,2.6
2023-05-09T05:29:21.343Z,2.6
2023-05-09T05:35:07.847Z,2.9
2023-05-09T05:40:52.645Z,2.8
2023-05-09T05:46:37.507Z,2.7
2023-05-09T05:52:22.202Z,2.6
2023-05-09T05:58:06.901Z,2.9
2023-05-09T06:03:51.813Z,2.6
2023-05-09T06:09:37.036Z,2.6
2023-05-09T06:15:21.990Z,2.5
2023-05-09T06:21:07.154Z,2.7
2023-05-09T06:26:52.020Z,2.8
2023-05-09T06:32:36.589Z,2.6
2023-05-09T06:38:21.465Z,2.7
2023-05-09T06:44:06.242Z,2.7
2023-05-09T06:49:50.984Z,2.8
2023-05-09T06:55:35.712Z,2.7
2023-05-09T07:01:20.624Z,2.6
2023-05-09T07:07:06.285Z,2.6
2023-05-09T07:12:50.868Z,2.4
2023-05-09T07:18:35.769Z,2.3
2023-05-09T07:24:20.406Z,2.4
2023-05-09T07:30:05.449Z,2.2
2023-05-09T07:35:50.442Z,2.1
2023-05-09T07:41:35.268Z,2.6
2023-05-09T07:47:20.209Z,2.2
2023-05-09T07:53:04.847Z,2.1
2023-05-09T07:58:50.473Z,2.1
2023-05-09T08:04:37.094Z,2.1
2023-05-09T08:10:21.495Z,2
2023-05-09T08:16:07.190Z,2.1
2023-05-09T08:21:51.806Z,2.1
2023-05-09T08:27:36.435Z,1.8
2023-05-09T08:33:21.270Z,1.9
2023-05-09T08:39:06.213Z,1.8
2023-05-09T08:44:51.098Z,1.9
2023-05-09T08:50:36.409Z,2
2023-05-09T08:56:21.643Z,2.3
2023-05-09T09:02:07.909Z,2
2023-05-09T09:07:52.942Z,2
2023-05-09T09:13:40.132Z,1.8
2023-05-09T09:19:24.778Z,1.8
2023-05-09T09:25:09.801Z,1.8
2023-05-09T09:30:55.108Z,1.9
2023-05-09T09:36:39.803Z,2
2023-05-09T09:42:24.603Z,2
2023-05-09T09:48:09.701Z,2.2
2023-05-09T09:53:54.507Z,2.1
2023-05-09T09:59:39.610Z,2
2023-05-09T10:05:28.323Z,1.8
2023-05-09T10:11:13.373Z,1.9
2023-05-09T10:16:59.216Z,1.9
2023-05-09T10:22:44.434Z,1.9
2023-05-09T10:28:33.548Z,1.8
2023-05-09T10:34:18.816Z,1.9
2023-05-09T10:40:05.233Z,2
2023-05-09T10:45:50.322Z,1.9
2023-05-09T10:51:35.137Z,1.9
2023-05-09T10:57:20.532Z,1.7
2023-05-09T11:03:12.616Z,1.9
2023-05-09T11:08:57.853Z,2
2023-05-09T11:14:46.525Z,1.8
2023-05-09T11:20:32.320Z,1.7
2023-05-09T11:26:17.764Z,2.5
2023-05-09T11:32:16.878Z,4.3
2023-05-09T11:38:06.176Z,4.6
2023-05-09T11:43:51.508Z,4.3
2023-05-09T11:49:36.238Z,3.8
2023-05-09T11:55:22.100Z,3.3
2023-05-09T12:01:07.105Z,3.5
2023-05-09T12:06:55.296Z,3.3
2023-05-09T12:12:44.246Z,3
2023-05-09T12:18:29.055Z,2.9
2023-05-09T12:24:13.805Z,2.7
2023-05-09T12:29:58.971Z,2.6
2023-05-09T12:35:47.333Z,2.4
2023-05-09T12:41:50.090Z,2
2023-05-09T12:47:37.085Z,2.3
2023-05-09T12:53:29.898Z,1.8
2023-05-09T12:59:21.703Z,1.9
2023-05-09T13:05:17.243Z,1.9
2023-05-09T13:11:16.383Z,1.7
2023-05-09T13:17:02.046Z,1.6
2023-05-09T13:22:47.776Z,1.5
2023-05-09T13:28:32.557Z,1.5
2023-05-09T13:34:17.026Z,1.6
2023-05-09T13:40:02.779Z,1.3
2023-05-09T13:45:47.733Z,1.4
2023-05-09T13:51:32.773Z,1.5
2023-05-09T13:57:17.501Z,1.3
2023-05-09T14:03:02.561Z,1.3
2023-05-09T14:08:47.968Z,1.2
2023-05-09T14:14:33.920Z,1.1
2023-05-09T14:20:19.513Z,1.1
2023-05-09T14:26:04.210Z,1.1
2023-05-09T14:31:49.120Z,1.1
2023-05-09T14:37:35.820Z,1
2023-05-09T14:43:20.677Z,0.9
2023-05-09T14:49:05.513Z,1
2023-05-09T14:54:50.482Z,0.9
2023-05-09T15:00:35.240Z,0.8
2023-05-09T15:06:20.004Z,0.9
2023-05-09T15:12:04.986Z,0.9
2023-05-09T15:17:50.061Z,0.7
2023-05-09T15:23:35.313Z,0.7
2023-05-09T15:29:20.388Z,0.8
2023-05-09T15:35:06.633Z,0.7
2023-05-09T15:40:51.716Z,0.7
2023-05-09T15:46:37.046Z,0.9
2023-05-09T15:52:22.217Z,0.7
2023-05-09T15:58:07.167Z,0.7
2023-05-09T16:03:52.372Z,0.7
2023-05-09T16:09:37.554Z,1.1
2023-05-09T16:15:22.356Z,0.8
2023-05-09T16:21:07.574Z,0.9
2023-05-09T16:26:52.500Z,0.8
2023-05-09T16:32:36.996Z,1.2
2023-05-09T16:38:21.563Z,0.8
2023-05-09T16:44:06.356Z,0.8
2023-05-09T16:49:51.158Z,1
2023-05-09T16:55:35.886Z,0.8
2023-05-09T17:01:20.877Z,0.8
2023-05-09T17:07:05.791Z,0.9
2023-05-09T17:12:50.671Z,0.9
2023-05-09T17:18:39.890Z,0.8
2023-05-09T17:24:24.696Z,0.8
2023-05-09T17:30:10.545Z,0.9
2023-05-09T17:35:56.169Z,0.9
2023-05-09T17:41:40.889Z,0.7
2023-05-09T17:47:26.637Z,0.8
2023-05-09T17:53:11.403Z,0.8
2023-05-09T17:58:56.173Z,0.8
2023-05-09T18:04:41.077Z,0.7
2023-05-09T18:10:25.680Z,1.2
2023-05-09T18:16:10.981Z,0.6
2023-05-09T18:21:55.962Z,0.9
2023-05-09T18:27:40.686Z,0.7
2023-05-09T18:33:26.170Z,1.2
2023-05-09T18:39:11.079Z,0.9
2023-05-09T18:44:55.735Z,0.9
2023-05-09T18:50:40.411Z,0.9
2023-05-09T18:56:25.133Z,1.1
2023-05-09T19:02:09.743Z,1.1
2023-05-09T19:07:56.423Z,1.1
2023-05-09T19:13:42.025Z,1.3
2023-05-09T19:19:26.972Z,1.3
2023-05-09T19:25:12.105Z,1.6
2023-05-09T19:30:57.018Z,1.8
2023-05-09T19:36:41.784Z,1.7
2023-05-09T19:42:26.615Z,2
2023-05-09T19:48:11.560Z,1.8
2023-05-09T19:53:56.251Z,6.5
2023-05-09T19:59:40.932Z,14.1
2023-05-09T20:05:25.912Z,12.8
2023-05-09T20:11:10.977Z,11
2023-05-09T20:16:55.857Z,10.1
2023-05-09T20:22:40.547Z,10.2
2023-05-09T20:28:26.146Z,8.8
2023-05-09T20:34:11.869Z,8.8
2023-05-09T20:39:57.525Z,8
2023-05-09T20:45:42.511Z,7.6
2023-05-09T20:51:27.786Z,7
2023-05-09T20:57:14.280Z,6.8
2023-05-09T21:03:01.224Z,6.4
2023-05-09T21:08:47.100Z,6.3
2023-05-09T21:14:31.771Z,5.9
2023-05-09T21:20:17.553Z,5.6
2023-05-09T21:26:02.583Z,4.8
2023-05-09T21:31:47.537Z,4.9
2023-05-09T21:37:32.371Z,4.4
2023-05-09T21:43:17.208Z,4.6
2023-05-09T21:49:01.830Z,4.4
2023-05-09T21:54:46.407Z,4
2023-05-09T22:00:31.255Z,3.9
2023-05-09T22:06:16.138Z,3.8
2023-05-09T22:12:01.007Z,3.8
2023-05-09T22:17:45.808Z,3.9
2023-05-09T22:23:30.572Z,3.3
2023-05-09T22:29:15.376Z,3.7
2023-05-09T22:35:00.911Z,3.9
2023-05-09T22:40:45.889Z,3.7
2023-05-09T22:46:30.804Z,3.8
2023-05-09T22:52:15.957Z,3.8
2023-05-09T22:58:00.806Z,3.7
2023-05-09T23:03:45.968Z,4.1
2023-05-09T23:09:30.745Z,3.4
2023-05-09T23:15:15.842Z,3.8
2023-05-09T23:21:00.490Z,3.5
2023-05-09T23:26:45.321Z,3.3
2023-05-09T23:32:30.867Z,3.4
2023-05-09T23:38:15.546Z,3.3
2023-05-09T23:44:00.195Z,3.3
2023-05-09T23:49:45.200Z,3.1
2023-05-09T23:55:29.961Z,3
